Time;durP1;ratioP1;P1;durP2;ratioP2;P2;SDS_P1;SDS_P2;PMS_P1;PMS_P2;Temp;Humidity;BMP_temperature;BMP_pressure;BME280_temperature;BME280_humidity;BME280_pressure;Samples;Min_cycle;Max_cycle;Signal;HPM_P1;HPM_P2
2022/07/17 00:00:28;;;;;;;7.38;1.92;;;;;;;19.95;52.29;97253.41;5055314;28;20214;-55
2022/07/17 00:02:54;;;;;;;2.97;1.90;;;;;;;19.81;52.25;97247.03;5055534;28;20312;-54
2022/07/17 00:05:21;;;;;;;2.00;1.80;;;;;;;19.83;50.78;97256.59;5041929;28;20238;-54
2022/07/17 00:07:49;;;;;;;2.13;1.73;;;;;;;19.83;51.16;97245.84;5054891;28;20304;-54
2022/07/17 00:10:19;;;;;;;2.47;2.10;;;;;;;19.80;52.59;97250.75;5042028;28;20222;-54
2022/07/17 00:12:46;;;;;;;2.47;2.10;;;;;;;19.75;52.21;97248.63;5041148;28;20694;-52
2022/07/17 00:15:13;;;;;;;2.30;1.73;;;;;;;19.68;51.97;97244.19;5055127;28;20230;-54
2022/07/17 00:17:40;;;;;;;2.45;2.10;;;;;;;19.72;51.47;97253.53;5054814;28;20231;-54
2022/07/17 00:20:08;;;;;;;1.65;1.55;;;;;;;19.66;52.11;97249.72;5055237;28;20207;-53
2022/07/17 00:22:35;;;;;;;3.95;2.20;;;;;;;19.57;52.45;97250.00;5041531;28;20207;-53
2022/07/17 00:25:04;;;;;;;3.70;2.38;;;;;;;19.54;52.40;97259.25;5056292;28;20631;-54
2022/07/17 00:27:31;;;;;;;3.80;2.00;;;;;;;19.57;51.75;97250.84;5057637;28;20246;-54
2022/07/17 00:29:57;;;;;;;2.53;2.30;;;;;;;19.39;53.27;97250.31;5069814;28;20205;-54
2022/07/17 00:32:24;;;;;;;2.00;1.90;;;;;;;19.43;54.00;97248.13;5061007;28;20237;-54
2022/07/17 00:34:50;;;;;;;2.10;2.00;;;;;;;19.36;53.69;97248.00;5055094;28;20210;-54
2022/07/17 00:37:17;;;;;;;2.25;2.00;;;;;;;19.39;53.57;97243.09;5054869;28;20215;-54
2022/07/17 00:39:44;;;;;;;2.40;2.20;;;;;;;19.23;53.28;97242.44;5054502;28;20213;-54
2022/07/17 00:42:13;;;;;;;2.22;2.13;;;;;;;19.14;53.87;97246.19;5054269;28;20639;-54
2022/07/17 00:44:41;;;;;;;2.75;2.50;;;;;;;19.09;54.14;97251.28;5054927;28;20235;-54
2022/07/17 00:47:12;;;;;;;2.25;2.10;;;;;;;18.88;55.27;97242.06;5054342;28;20261;-54
2022/07/17 00:49:39;;;;;;;6.85;6.10;;;;;;;18.89;55.24;97246.41;5054777;28;20207;-53
2022/07/17 00:52:06;;;;;;;6.90;5.10;;;;;;;18.78;56.23;97249.53;5054602;28;20227;-53
2022/07/17 00:54:35;;;;;;;8.20;5.82;;;;;;;18.70;56.96;97246.09;5054439;28;20611;-54
2022/07/17 00:57:03;;;;;;;4.50;3.03;;;;;;;18.66;57.50;97245.59;5054443;28;20207;-54
2022/07/17 00:59:34;;;;;;;2.22;2.00;;;;;;;18.69;56.37;97247.94;5054635;28;20214;-54
2022/07/17 01:02:00;;;;;;;4.47;2.22;;;;;;;18.52;58.29;97250.91;5054553;28;20203;-53
2022/07/17 01:04:27;;;;;;;4.40;2.10;;;;;;;18.39;59.06;97251.44;5054354;28;20206;-53
2022/07/17 01:06:54;;;;;;;2.38;2.00;;;;;;;18.48;57.75;97249.56;5054405;28;20535;-53
2022/07/17 01:09:21;;;;;;;3.42;2.00;;;;;;;18.40;58.11;97250.44;5053982;28;20602;-53
2022/07/17 01:11:49;;;;;;;2.25;2.10;;;;;;;18.37;58.41;97248.94;5040924;28;20241;-53
2022/07/17 01:14:16;;;;;;;5.30;2.10;;;;;;;18.35;58.21;97242.91;5053355;28;20241;-55
2022/07/17 01:16:44;;;;;;;1.80;1.70;;;;;;;18.34;58.75;97241.28;5054448;28;20214;-55
2022/07/17 01:19:11;;;;;;;2.22;2.10;;;;;;;18.28;59.41;97244.63;5046614;28;20298;-54
2022/07/17 01:21:41;;;;;;;2.30;2.00;;;;;;;18.28;59.84;97251.88;5053987;28;20234;-53
2022/07/17 01:24:07;;;;;;;2.28;1.92;;;;;;;18.33;58.65;97246.78;5054411;28;20682;-53
2022/07/17 01:26:37;;;;;;;2.88;2.30;;;;;;;18.25;59.34;97252.19;5053955;28;20670;-55
2022/07/17 01:29:04;;;;;;;2.53;2.13;;;;;;;18.19;58.84;97247.53;5054345;28;20203;-53
2022/07/17 01:31:30;;;;;;;2.30;2.10;;;;;;;18.11;60.29;97243.06;5042852;28;20207;-53
2022/07/17 01:33:57;;;;;;;2.00;1.90;;;;;;;18.09;59.86;97253.13;5054384;28;20670;-54
2022/07/17 01:36:25;;;;;;;2.22;2.08;;;;;;;18.09;59.36;97252.28;5054229;28;20214;-53
2022/07/17 01:38:54;;;;;;;2.25;1.98;;;;;;;18.01;59.83;97249.63;5055873;28;20647;-54
2022/07/17 01:41:21;;;;;;;2.00;1.90;;;;;;;17.97;59.99;97254.50;5065308;28;20200;-53
2022/07/17 01:43:47;;;;;;;4.05;2.30;;;;;;;17.90;61.89;97249.03;5079691;28;20186;-54
2022/07/17 01:46:16;;;;;;;2.83;2.03;;;;;;;17.94;60.78;97254.03;5064279;28;20199;-53
2022/07/17 01:48:42;;;;;;;2.35;2.25;;;;;;;17.81;60.12;97243.88;5058698;28;20238;-55
2022/07/17 01:51:13;;;;;;;2.30;2.20;;;;;;;17.78;60.25;97247.72;5071917;28;20200;-55
2022/07/17 01:53:40;;;;;;;2.47;2.05;;;;;;;17.76;60.03;97241.72;5072919;28;20223;-54
2022/07/17 01:56:08;;;;;;;2.10;1.98;;;;;;;17.71;61.50;97236.03;5064947;28;20203;-53
2022/07/17 01:58:35;;;;;;;2.35;2.15;;;;;;;17.65;61.70;97243.94;5057778;28;20246;-54
2022/07/17 02:01:02;;;;;;;3.90;1.98;;;;;;;17.59;62.25;97237.44;5057122;28;20249;-54
2022/07/17 02:03:29;;;;;;;3.28;2.20;;;;;;;17.62;61.64;97242.44;5057538;28;20214;-54
2022/07/17 02:05:56;;;;;;;1.98;1.88;;;;;;;17.69;60.48;97240.75;5057649;28;20207;-53
2022/07/17 02:08:22;;;;;;;3.22;2.50;;;;;;;17.63;60.54;97241.44;5057378;28;20231;-53
2022/07/17 02:10:49;;;;;;;2.53;2.20;;;;;;;17.51;60.92;97241.94;5057217;28;20214;-53
2022/07/17 02:13:17;;;;;;;2.10;1.92;;;;;;;17.53;60.93;97246.13;5057245;28;20259;-53
2022/07/17 02:15:44;;;;;;;2.05;1.95;;;;;;;17.61;60.38;97238.09;5057851;28;20619;-54
2022/07/17 02:18:10;;;;;;;2.10;2.00;;;;;;;17.56;60.54;97232.44;5057285;28;20199;-54
2022/07/17 02:20:37;;;;;;;2.40;2.20;;;;;;;17.50;61.46;97234.94;5057364;28;20203;-53
2022/07/17 02:23:04;;;;;;;2.22;2.03;;;;;;;17.51;61.75;97231.22;5057135;28;20286;-54
2022/07/17 02:25:31;;;;;;;2.63;2.35;;;;;;;17.49;61.61;97228.75;5056291;28;20207;-54
2022/07/17 02:27:58;;;;;;;2.53;2.33;;;;;;;17.54;61.49;97230.88;5056882;28;20218;-54
2022/07/17 02:30:26;;;;;;;2.90;2.25;;;;;;;17.46;62.62;97223.75;5057038;28;20242;-53
2022/07/17 02:32:52;;;;;;;2.53;2.35;;;;;;;17.44;62.12;97236.44;5067833;28;20227;-54
2022/07/17 02:35:19;;;;;;;4.82;2.20;;;;;;;17.43;61.75;97234.75;5079979;28;20190;-55
2022/07/17 02:37:45;;;;;;;3.65;2.50;;;;;;;17.34;61.18;97225.09;5079914;28;20213;-52
2022/07/17 02:40:13;;;;;;;2.47;2.28;;;;;;;17.26;62.29;97222.44;5057795;28;20269;-54
2022/07/17 02:42:41;;;;;;;2.85;2.45;;;;;;;17.28;61.98;97223.13;5043900;28;20261;-53
2022/07/17 02:45:09;;;;;;;3.67;2.35;;;;;;;17.21;62.48;97219.47;5056183;28;20211;-53
2022/07/17 02:47:37;;;;;;;3.00;2.53;;;;;;;17.13;63.70;97227.50;5056269;28;20234;-53
2022/07/17 02:50:05;;;;;;;2.47;2.20;;;;;;;17.12;62.89;97218.63;5056571;28;20265;-53
2022/07/17 02:52:31;;;;;;;2.75;2.55;;;;;;;17.01;63.21;97215.47;5057035;28;20226;-53
2022/07/17 02:54:58;;;;;;;6.40;2.85;;;;;;;16.97;63.50;97220.31;5055674;28;20214;-53
2022/07/17 02:57:24;;;;;;;3.78;2.38;;;;;;;16.92;63.66;97218.16;5044795;28;20206;-54
2022/07/17 02:59:52;;;;;;;3.50;2.70;;;;;;;16.92;63.57;97215.50;5055762;28;20205;-53
2022/07/17 03:02:19;;;;;;;3.95;2.70;;;;;;;16.91;63.31;97213.81;5056617;28;20202;-53
2022/07/17 03:04:47;;;;;;;4.50;2.92;;;;;;;16.99;63.29;97223.66;5056541;28;20230;-52
2022/07/17 03:07:13;;;;;;;2.42;2.22;;;;;;;16.89;63.82;97215.84;5056478;28;20214;-53
2022/07/17 03:09:40;;;;;;;4.65;2.75;;;;;;;16.80;63.53;97218.66;5054000;28;20667;-54
2022/07/17 03:12:07;;;;;;;3.50;2.67;;;;;;;16.93;62.71;97219.00;5045474;28;20241;-53
2022/07/17 03:14:34;;;;;;;2.70;2.50;;;;;;;16.93;63.05;97217.16;5055939;28;20644;-54
2022/07/17 03:17:01;;;;;;;4.10;2.83;;;;;;;16.98;62.28;97218.47;5056199;28;20234;-53
2022/07/17 03:19:27;;;;;;;3.38;2.55;;;;;;;16.93;63.92;97219.81;5056003;28;20590;-53
2022/07/17 03:21:56;;;;;;;3.13;2.40;;;;;;;16.89;63.27;97221.19;5056219;28;20214;-54
2022/07/17 03:24:23;;;;;;;2.50;2.40;;;;;;;16.83;64.30;97215.66;5055474;28;20242;-54
2022/07/17 03:26:49;;;;;;;2.73;2.40;;;;;;;16.88;64.60;97229.34;5055722;28;20211;-53
2022/07/17 03:29:17;;;;;;;3.42;2.60;;;;;;;16.82;63.65;97224.69;5056328;28;20551;-54
2022/07/17 03:31:44;;;;;;;3.80;2.58;;;;;;;16.81;64.36;97223.84;5055849;28;20207;-53
2022/07/17 03:34:10;;;;;;;2.70;2.50;;;;;;;16.80;63.26;97230.19;5055775;28;20235;-53
2022/07/17 03:36:37;;;;;;;2.27;2.10;;;;;;;16.78;63.98;97224.19;5055944;28;20230;-54
2022/07/17 03:39:05;;;;;;;3.30;2.80;;;;;;;16.81;62.88;97226.53;5055893;28;20521;-53
2022/07/17 03:41:32;;;;;;;2.63;2.43;;;;;;;16.82;63.90;97224.69;5055941;28;20702;-53
2022/07/17 03:43:58;;;;;;;2.83;2.63;;;;;;;16.77;64.24;97225.19;5055829;28;20230;-53
2022/07/17 03:46:25;;;;;;;3.70;2.37;;;;;;;16.77;63.62;97227.00;5055554;28;20227;-52
2022/07/17 03:48:51;;;;;;;3.45;2.55;;;;;;;16.81;64.28;97228.34;5055399;28;20642;-54
2022/07/17 03:51:18;;;;;;;3.33;2.38;;;;;;;16.78;63.68;97218.84;5055261;28;20242;-53
2022/07/17 03:53:44;;;;;;;3.37;2.60;;;;;;;16.78;63.15;97224.19;5055625;28;20230;-53
2022/07/17 03:56:13;;;;;;;3.58;2.60;;;;;;;16.69;63.39;97222.50;5055005;28;20214;-53
2022/07/17 03:58:39;;;;;;;3.80;2.80;;;;;;;16.61;64.06;97225.19;5055354;28;20202;-54
2022/07/17 04:01:06;;;;;;;4.33;3.60;;;;;;;16.67;63.87;97232.53;5055402;28;20207;-53
2022/07/17 04:03:32;;;;;;;3.80;3.50;;;;;;;16.70;64.87;97232.19;5040609;28;20204;-54
2022/07/17 04:05:59;;;;;;;3.87;2.63;;;;;;;16.65;65.57;97233.72;5055128;28;20588;-54
2022/07/17 04:08:26;;;;;;;3.07;2.53;;;;;;;16.64;64.64;97230.19;5055108;28;20238;-54
2022/07/17 04:10:52;;;;;;;2.83;2.60;;;;;;;16.61;64.27;97229.69;5055488;28;20243;-53
2022/07/17 04:13:20;;;;;;;2.78;2.58;;;;;;;16.60;65.88;97228.00;5055328;28;20328;-53
2022/07/17 04:15:52;;;;;;;2.50;2.30;;;;;;;16.61;65.95;97227.88;5055527;28;20218;-53
2022/07/17 04:18:20;;;;;;;2.80;2.40;;;;;;;16.61;66.56;97227.88;5055452;28;20290;-54
2022/07/17 04:20:46;;;;;;;3.47;2.45;;;;;;;16.65;66.56;97234.50;5054213;28;20290;-54
2022/07/17 04:23:14;;;;;;;2.40;2.30;;;;;;;16.71;64.95;97233.03;5055242;28;20222;-55
2022/07/17 04:25:40;;;;;;;2.97;2.67;;;;;;;16.70;65.70;97232.19;5054327;28;20547;-53
2022/07/17 04:28:07;;;;;;;4.47;2.90;;;;;;;16.79;67.11;97231.19;5055281;28;20203;-54
2022/07/17 04:30:35;;;;;;;3.37;2.50;;;;;;;16.95;65.81;97245.53;5054934;28;20234;-55
2022/07/17 04:33:02;;;;;;;3.60;2.70;;;;;;;17.09;65.91;97239.50;5055361;28;20211;-53
2022/07/17 04:35:29;;;;;;;3.13;2.60;;;;;;;17.06;66.18;97242.53;5055150;28;20211;-52
2022/07/17 04:37:55;;;;;;;3.17;2.80;;;;;;;17.18;67.06;97236.66;5055731;28;20552;-55
2022/07/17 04:40:22;;;;;;;3.70;2.70;;;;;;;17.53;64.38;97240.78;5042283;28;20204;-53
2022/07/17 04:42:49;;;;;;;3.78;2.70;;;;;;;18.02;63.70;97230.75;5066717;28;20195;-54
2022/07/17 04:45:15;;;;;;;3.95;3.05;;;;;;;18.11;63.09;97242.22;5058829;28;20187;-52
2022/07/17 04:47:43;;;;;;;3.00;2.50;;;;;;;17.92;63.59;97235.47;5077584;28;20247;-53
2022/07/17 04:50:10;;;;;;;3.17;2.88;;;;;;;18.02;63.81;97237.94;5071880;28;20207;-53
2022/07/17 04:52:39;;;;;;;5.20;2.97;;;;;;;17.90;64.81;97230.28;5061504;28;20630;-54
2022/07/17 04:55:06;;;;;;;2.55;2.35;;;;;;;17.97;66.71;97229.59;5058148;28;20250;-54
2022/07/17 04:57:33;;;;;;;2.80;2.60;;;;;;;18.01;66.74;97241.59;5057482;28;20207;-54
2022/07/17 04:59:59;;;;;;;2.90;2.70;;;;;;;18.15;64.68;97236.34;5057871;28;20218;-54
2022/07/17 05:02:27;;;;;;;2.97;2.67;;;;;;;18.29;58.46;97237.44;5058071;28;20210;-53
2022/07/17 05:04:55;;;;;;;2.72;2.53;;;;;;;18.41;61.22;97244.06;5057881;28;20258;-54
2022/07/17 05:07:22;;;;;;;2.95;2.75;;;;;;;18.43;60.12;97239.34;5058236;28;20577;-54
2022/07/17 05:09:48;;;;;;;2.75;2.42;;;;;;;18.57;57.73;97235.94;5058841;28;20270;-54
2022/07/17 05:12:15;;;;;;;3.75;2.70;;;;;;;18.62;56.47;97236.25;5068871;28;20195;-53
2022/07/17 05:14:42;;;;;;;3.80;2.83;;;;;;;18.73;56.10;97230.47;5081645;28;20230;-54
2022/07/17 05:17:08;;;;;;;4.65;2.80;;;;;;;18.93;54.48;97235.34;5082289;28;20238;-53
2022/07/17 05:19:36;;;;;;;2.92;2.72;;;;;;;19.23;54.90;97242.44;5082022;28;20296;-54
2022/07/17 05:22:04;;;;;;;3.65;2.45;;;;;;;19.42;52.76;97231.19;5081361;28;20195;-54
2022/07/17 05:24:46;;;;;;;3.15;2.33;;;;;;;19.72;55.38;97234.75;5081490;28;20207;-54
2022/07/17 05:27:12;;;;;;;3.22;2.92;;;;;;;19.86;54.82;97239.25;5081727;28;20180;-54
2022/07/17 05:29:39;;;;;;;3.70;2.75;;;;;;;20.08;54.57;97237.47;5082018;28;20241;-54
2022/07/17 05:32:06;;;;;;;2.50;2.30;;;;;;;20.35;53.04;97234.94;5081588;28;20203;-54
2022/07/17 05:34:33;;;;;;;4.50;2.85;;;;;;;20.56;50.18;97236.81;5066356;28;20226;-54
2022/07/17 05:36:59;;;;;;;4.70;2.67;;;;;;;20.80;49.54;97244.50;5059885;28;20234;-54
2022/07/17 05:39:27;;;;;;;2.45;2.25;;;;;;;20.93;47.94;97245.66;5058264;28;20207;-55
2022/07/17 05:41:55;;;;;;;2.50;2.30;;;;;;;21.04;50.55;97237.06;5057085;28;20242;-54
2022/07/17 05:44:21;;;;;;;4.07;2.63;;;;;;;21.17;49.79;97245.28;5046175;28;20241;-54
2022/07/17 05:46:48;;;;;;;2.72;2.47;;;;;;;21.35;49.82;97245.63;5067202;28;20253;-54
2022/07/17 05:49:15;;;;;;;4.25;2.38;;;;;;;21.55;49.38;97243.91;5069774;28;20211;-54
2022/07/17 05:51:41;;;;;;;2.58;2.40;;;;;;;21.74;48.27;97248.59;5059821;28;20207;-54
2022/07/17 05:54:08;;;;;;;3.28;2.33;;;;;;;21.86;46.03;97248.03;5061602;28;20655;-55
2022/07/17 05:56:36;;;;;;;2.90;2.70;;;;;;;22.06;46.47;97246.31;5066545;28;20237;-54
2022/07/17 05:59:03;;;;;;;2.85;2.55;;;;;;;21.84;46.15;97243.69;5057940;28;20212;-54
2022/07/17 06:01:29;;;;;;;2.40;2.20;;;;;;;22.21;46.84;97239.72;5054453;28;20257;-55
2022/07/17 06:03:56;;;;;;;3.40;2.30;;;;;;;22.42;46.43;97244.19;5057599;28;20206;-55
2022/07/17 06:06:23;;;;;;;2.55;2.28;;;;;;;22.55;46.41;97257.69;5057828;28;20196;-54
2022/07/17 06:08:49;;;;;;;2.85;2.63;;;;;;;22.79;46.51;97256.31;5057709;28;20215;-55
2022/07/17 06:11:16;;;;;;;3.20;2.42;;;;;;;23.01;46.46;97248.88;5057562;28;20218;-54
2022/07/17 06:13:47;;;;;;;2.85;2.50;;;;;;;23.17;44.16;97246.59;5057261;28;20319;-55
2022/07/17 06:16:13;;;;;;;2.50;2.30;;;;;;;23.28;43.93;97253.22;5056968;28;20663;-54
2022/07/17 06:18:40;;;;;;;2.50;2.30;;;;;;;23.48;43.69;97251.41;5057752;28;20380;-54
2022/07/17 06:21:06;;;;;;;2.45;2.33;;;;;;;23.62;42.98;97249.53;5057433;28;20222;-55
2022/07/17 06:23:33;;;;;;;5.75;2.58;;;;;;;23.65;41.33;97249.94;5047924;28;20248;-56
2022/07/17 06:26:00;;;;;;;3.75;2.30;;;;;;;23.78;43.17;97241.78;5054870;28;20539;-54
2022/07/17 06:28:26;;;;;;;2.58;2.22;;;;;;;24.01;44.64;97254.00;5057101;28;20230;-54
2022/07/17 06:30:55;;;;;;;3.00;2.72;;;;;;;23.99;42.27;97250.66;5056821;28;20695;-54
2022/07/17 06:33:22;;;;;;;3.75;2.50;;;;;;;24.16;40.91;97255.41;5057081;28;20209;-54
2022/07/17 06:35:50;;;;;;;3.38;2.20;;;;;;;24.21;41.68;97255.63;5057314;28;20199;-55
2022/07/17 06:38:18;;;;;;;2.63;2.42;;;;;;;24.12;41.79;97261.44;5056832;28;20540;-54
2022/07/17 06:40:44;;;;;;;2.35;2.20;;;;;;;24.22;41.91;97267.25;5057296;28;20249;-53
2022/07/17 06:43:11;;;;;;;4.22;2.30;;;;;;;24.48;41.23;97266.34;5056756;28;20207;-54
2022/07/17 06:45:38;;;;;;;4.43;2.53;;;;;;;24.34;41.55;97267.44;5056602;28;20207;-53
2022/07/17 06:48:06;;;;;;;2.50;2.28;;;;;;;24.28;41.01;97266.41;5056795;28;20283;-54
2022/07/17 06:50:33;;;;;;;3.72;2.40;;;;;;;24.52;40.91;97262.97;5057124;28;20207;-54
2022/07/17 06:53:00;;;;;;;5.05;2.60;;;;;;;24.45;40.59;97262.16;5068471;28;20211;-54
2022/07/17 06:55:27;;;;;;;4.15;2.40;;;;;;;24.53;41.02;97271.91;5063515;28;20232;-55
2022/07/17 06:57:54;;;;;;;2.88;2.47;;;;;;;24.85;41.02;97272.81;5054651;28;20206;-54
2022/07/17 07:00:21;;;;;;;2.92;2.45;;;;;;;24.86;41.69;97277.19;5056792;28;20207;-55
2022/07/17 07:02:47;;;;;;;3.20;2.60;;;;;;;24.74;40.88;97275.13;5056576;28;20281;-54
2022/07/17 07:05:15;;;;;;;2.83;2.50;;;;;;;25.05;40.51;97274.34;5056531;28;20285;-55
2022/07/17 07:07:42;;;;;;;4.55;2.13;;;;;;;25.10;40.03;97274.53;5051914;28;20226;-53
2022/07/17 07:10:09;;;;;;;3.30;2.90;;;;;;;25.19;40.20;97281.31;5056352;28;20231;-55
2022/07/17 07:12:36;;;;;;;2.67;2.30;;;;;;;25.42;39.85;97275.31;5056217;28;20225;-55
2022/07/17 07:15:04;;;;;;;2.40;2.20;;;;;;;25.57;40.23;97277.72;5055963;28;20227;-54
2022/07/17 07:17:31;;;;;;;2.65;2.45;;;;;;;25.76;38.10;97260.44;5056352;28;20207;-54
2022/07/17 07:19:58;;;;;;;3.33;2.30;;;;;;;26.02;38.07;97267.47;5056005;28;20207;-54
2022/07/17 07:22:26;;;;;;;2.75;1.92;;;;;;;25.98;38.00;97266.25;5056316;28;20237;-54
2022/07/17 07:24:52;;;;;;;2.42;2.20;;;;;;;26.21;37.91;97264.59;5056309;28;20249;-54
2022/07/17 07:27:19;;;;;;;3.10;2.28;;;;;;;26.09;37.87;97266.34;5056305;28;20242;-55
2022/07/17 07:29:46;;;;;;;4.60;2.50;;;;;;;26.43;37.93;97277.69;5056384;28;20207;-55
2022/07/17 07:32:13;;;;;;;2.63;2.40;;;;;;;26.48;37.46;97273.22;5056270;28;20218;-55
2022/07/17 07:34:39;;;;;;;3.17;2.20;;;;;;;26.45;36.06;97276.38;5056079;28;20280;-54
2022/07/17 07:37:06;;;;;;;4.63;2.72;;;;;;;26.82;36.92;97274.44;5054841;28;20680;-55
2022/07/17 07:39:34;;;;;;;2.63;2.42;;;;;;;26.85;36.83;97267.75;5055428;28;20531;-54
2022/07/17 07:42:01;;;;;;;2.60;2.22;;;;;;;26.88;38.32;97276.28;5055965;28;20230;-53
2022/07/17 07:44:27;;;;;;;7.43;2.55;;;;;;;26.98;36.39;97264.84;5056856;28;20239;-55
2022/07/17 07:46:55;;;;;;;2.35;2.10;;;;;;;26.83;37.39;97267.13;5055562;28;20702;-54
2022/07/17 07:49:22;;;;;;;3.03;2.50;;;;;;;27.09;37.54;97272.19;5056378;28;20222;-58
2022/07/17 07:51:48;;;;;;;3.33;2.58;;;;;;;27.40;36.09;97265.66;5056063;28;20256;-59
2022/07/17 07:54:15;;;;;;;3.63;2.40;;;;;;;27.54;35.59;97277.97;5057021;28;20223;-56
2022/07/17 07:56:42;;;;;;;3.05;2.38;;;;;;;27.47;37.04;97269.94;5055606;28;20525;-59
2022/07/17 07:59:09;;;;;;;2.55;2.35;;;;;;;27.70;36.51;97278.09;5055822;28;20238;-57
2022/07/17 08:01:37;;;;;;;2.67;2.42;;;;;;;27.73;35.78;97274.09;5055040;28;20730;-58
2022/07/17 08:04:03;;;;;;;3.13;2.60;;;;;;;27.87;35.84;97274.69;5055831;28;20286;-59
2022/07/17 08:06:30;;;;;;;4.18;2.22;;;;;;;27.80;34.93;97279.41;5055396;28;20567;-59
2022/07/17 08:08:57;;;;;;;2.90;2.10;;;;;;;28.03;35.44;97280.22;5056275;28;20276;-59
2022/07/17 08:11:24;;;;;;;3.20;2.47;;;;;;;28.08;37.65;97274.94;5055368;28;20207;-59
2022/07/17 08:13:52;;;;;;;2.90;2.60;;;;;;;28.21;35.84;97279.28;5055074;28;20207;-57
2022/07/17 08:16:19;;;;;;;3.97;2.53;;;;;;;27.95;35.98;97266.19;5054709;28;20694;-58
2022/07/17 08:18:46;;;;;;;2.63;2.42;;;;;;;28.20;37.13;97269.47;5055225;28;20207;-58
2022/07/17 08:21:12;;;;;;;4.85;2.75;;;;;;;28.20;38.19;97269.47;5055041;28;20215;-57
2022/07/17 08:23:39;;;;;;;3.47;2.60;;;;;;;28.28;35.75;97276.44;5055621;28;20642;-58
2022/07/17 08:26:05;;;;;;;3.13;2.70;;;;;;;28.62;35.53;97272.81;5055582;28;20207;-57
2022/07/17 08:28:32;;;;;;;2.40;2.20;;;;;;;28.64;34.56;97287.84;5055499;28;20281;-58
2022/07/17 08:31:00;;;;;;;3.58;2.38;;;;;;;28.72;35.70;97274.94;5056445;28;20245;-57
2022/07/17 08:33:27;;;;;;;2.80;2.50;;;;;;;28.81;35.73;97274.31;5055455;28;20238;-58
2022/07/17 08:35:56;;;;;;;4.45;2.63;;;;;;;28.51;34.94;97270.97;5056022;28;20250;-58
2022/07/17 08:38:23;;;;;;;2.65;2.47;;;;;;;28.85;35.19;97271.91;5055336;28;20676;-58
2022/07/17 08:40:53;;;;;;;2.70;2.50;;;;;;;28.79;34.08;97272.91;5050357;28;20543;-58
2022/07/17 08:43:20;;;;;;;2.60;2.40;;;;;;;28.79;35.36;97276.47;5047340;28;20237;-57
2022/07/17 08:45:48;;;;;;;4.75;2.47;;;;;;;28.76;35.42;97284.28;5054443;28;20222;-58
2022/07/17 08:48:19;;;;;;;2.50;2.30;;;;;;;29.04;35.31;97284.28;5053568;28;20560;-57
2022/07/17 08:50:47;;;;;;;2.70;2.50;;;;;;;28.94;34.76;97286.81;5054815;28;20662;-57
2022/07/17 08:53:13;;;;;;;3.55;2.13;;;;;;;28.97;34.25;97284.44;5054871;28;20221;-57
2022/07/17 08:55:40;;;;;;;4.45;2.03;;;;;;;28.73;35.03;97282.88;5054712;28;20223;-57
2022/07/17 08:58:06;;;;;;;2.25;2.13;;;;;;;28.55;35.12;97283.03;5054607;28;20218;-52
2022/07/17 09:00:33;;;;;;;2.53;2.33;;;;;;;28.74;34.51;97281.78;5062193;28;20203;-55
2022/07/17 09:03:01;;;;;;;3.65;2.47;;;;;;;28.79;34.19;97278.34;5074684;28;20207;-56
2022/07/17 09:05:31;;;;;;;3.38;2.72;;;;;;;28.95;34.29;97272.09;5072957;28;20236;-56
2022/07/17 09:07:59;;;;;;;2.50;2.30;;;;;;;29.16;34.00;97274.13;5067250;28;20214;-57
2022/07/17 09:10:37;;;;;;;2.30;2.20;;;;;;;29.11;34.53;97272.16;5056690;28;20207;-52
2022/07/17 09:13:15;;;;;;;3.05;2.45;;;;;;;29.28;33.15;97280.38;5054964;28;20250;-52
2022/07/17 09:15:42;;;;;;;3.30;2.33;;;;;;;29.15;33.26;97278.78;5046715;28;20246;-51
2022/07/17 09:18:08;;;;;;;3.38;2.50;;;;;;;29.14;33.25;97274.38;5054311;28;20203;-54
2022/07/17 09:20:42;;;;;;;3.00;2.08;;;;;;;29.17;36.09;97278.50;5053827;28;20211;-52
2022/07/17 09:23:08;;;;;;;2.40;2.20;;;;;;;29.63;34.06;97275.53;5054470;28;20256;-52
2022/07/17 09:25:38;;;;;;;2.85;2.45;;;;;;;29.71;33.00;97276.19;5041164;28;20203;-52
2022/07/17 09:28:07;;;;;;;2.65;2.45;;;;;;;29.85;32.35;97272.91;5041349;28;20651;-52
2022/07/17 09:30:35;;;;;;;4.50;2.38;;;;;;;29.78;33.04;97261.31;5053496;28;20225;-53
2022/07/17 09:33:02;;;;;;;2.67;2.30;;;;;;;30.05;33.60;97266.91;5054314;28;20203;-51
2022/07/17 09:35:28;;;;;;;2.15;2.05;;;;;;;30.43;34.44;97260.66;5047466;28;20220;-52
2022/07/17 09:37:56;;;;;;;3.97;2.40;;;;;;;30.74;33.21;97264.56;5050268;28;20242;-52
2022/07/17 09:43:08;;;;;;;3.13;2.38;;;;;;;30.82;32.17;97264.91;5053899;28;20226;-53
2022/07/17 09:45:35;;;;;;;2.40;2.20;;;;;;;30.80;32.25;97275.28;5054263;28;20522;-53
2022/07/17 09:48:02;;;;;;;2.70;2.30;;;;;;;30.77;30.92;97270.34;5053470;28;20231;-52
2022/07/17 09:50:29;;;;;;;2.05;1.95;;;;;;;30.79;31.41;97265.41;5054497;28;20247;-53
2022/07/17 09:52:58;;;;;;;2.72;2.28;;;;;;;30.71;30.93;97265.06;5051698;28;20231;-52
2022/07/17 09:55:29;;;;;;;2.67;2.30;;;;;;;30.88;31.18;97263.06;5055870;28;20558;-53
2022/07/17 09:57:56;;;;;;;3.78;2.25;;;;;;;30.71;30.85;97265.06;5047513;28;20636;-52
2022/07/17 10:00:23;;;;;;;2.25;2.05;;;;;;;30.78;31.33;97255.59;5053252;28;20206;-53
2022/07/17 10:02:50;;;;;;;2.80;2.33;;;;;;;31.03;30.86;97255.06;5055453;28;20203;-53
2022/07/17 10:05:16;;;;;;;2.38;2.20;;;;;;;31.08;30.33;97255.09;5057016;28;20203;-53
2022/07/17 10:07:45;;;;;;;2.10;1.90;;;;;;;31.34;30.47;97247.97;5051597;28;20209;-52
2022/07/17 10:10:15;;;;;;;3.42;2.28;;;;;;;31.17;29.09;97261.78;5054186;28;20195;-54
2022/07/17 10:12:44;;;;;;;3.50;2.03;;;;;;;31.17;30.00;97259.03;5051881;28;20237;-53
2022/07/17 10:15:11;;;;;;;2.10;2.00;;;;;;;31.49;30.16;97262.63;5054199;28;20246;-52
2022/07/17 10:17:38;;;;;;;2.63;2.20;;;;;;;31.36;29.20;97267.66;5052717;28;20235;-53
2022/07/17 10:20:05;;;;;;;4.55;2.58;;;;;;;31.45;30.16;97264.22;5057739;28;20230;-52
2022/07/17 10:22:41;;;;;;;2.55;2.35;;;;;;;31.41;29.98;97265.81;5057271;28;20211;-52
2022/07/17 10:25:08;;;;;;;2.60;2.10;;;;;;;31.78;30.36;97270.53;5057768;28;20284;-53
2022/07/17 10:27:37;;;;;;;2.33;2.15;;;;;;;31.77;28.17;97263.41;5057013;28;20231;-53
2022/07/17 10:30:05;;;;;;;2.83;2.10;;;;;;;31.71;28.16;97264.47;5057301;28;20218;-52
2022/07/17 10:32:32;;;;;;;2.05;1.95;;;;;;;31.88;28.55;97265.13;5057482;28;20207;-51
2022/07/17 10:35:00;;;;;;;2.75;2.20;;;;;;;32.03;29.09;97267.94;5057251;28;20209;-52
2022/07/17 10:37:28;;;;;;;2.60;2.10;;;;;;;31.73;27.78;97271.31;5053345;28;20238;-53
2022/07/17 10:40:04;;;;;;;2.13;2.03;;;;;;;31.72;27.97;97264.19;5048934;28;20230;-53
2022/07/17 10:42:48;;;;;;;2.45;2.25;;;;;;;31.49;29.05;97257.16;5055624;28;20217;-55
2022/07/17 10:45:16;;;;;;;2.70;2.40;;;;;;;31.56;28.37;97263.25;5054483;28;20264;-53
2022/07/17 10:47:48;;;;;;;2.67;1.92;;;;;;;31.49;27.99;97268.09;5057033;28;20364;-54
2022/07/17 10:50:15;;;;;;;2.80;2.58;;;;;;;31.50;27.86;97266.97;5056915;28;20243;-55
2022/07/17 10:52:42;;;;;;;2.20;2.00;;;;;;;31.45;28.17;97268.84;5057078;28;20214;-55
2022/07/17 10:55:19;;;;;;;3.75;2.33;;;;;;;31.36;30.25;97278.59;5056552;28;20227;-55
2022/07/17 10:57:48;;;;;;;2.47;2.25;;;;;;;31.68;28.94;97264.94;5057128;28;20550;-55
2022/07/17 11:00:15;;;;;;;2.05;1.95;;;;;;;31.55;27.26;97261.59;5051975;28;20218;-55
2022/07/17 11:02:42;;;;;;;4.72;2.22;;;;;;;31.18;27.63;97266.13;5048823;28;20230;-55
2022/07/17 11:05:09;;;;;;;2.70;2.22;;;;;;;31.52;28.22;97270.31;5051112;28;20631;-55
2022/07/17 11:07:36;;;;;;;4.05;2.28;;;;;;;31.75;27.85;97279.22;5049219;28;20211;-53
2022/07/17 11:10:02;;;;;;;2.28;2.17;;;;;;;31.79;26.89;97278.44;5073608;28;20195;-54
2022/07/17 11:12:32;;;;;;;2.22;2.10;;;;;;;31.78;27.21;97273.25;5063528;28;20223;-53
2022/07/17 11:15:05;;;;;;;3.58;1.88;;;;;;;31.73;26.84;97263.09;5068148;28;20245;-53
2022/07/17 11:17:32;;;;;;;6.88;2.28;;;;;;;31.60;27.05;97279.13;5055720;28;20202;-53
2022/07/17 11:19:59;;;;;;;2.95;2.03;;;;;;;31.99;28.32;97262.16;5056473;28;20317;-54
2022/07/17 11:22:26;;;;;;;2.83;2.10;;;;;;;31.94;26.48;97269.53;5056440;28;20203;-54
2022/07/17 11:24:53;;;;;;;3.45;2.20;;;;;;;31.90;27.82;97262.94;5056166;28;20239;-55
2022/07/17 11:27:21;;;;;;;2.88;2.33;;;;;;;31.63;26.92;97273.13;5055830;28;20195;-53
2022/07/17 11:29:49;;;;;;;2.97;2.33;;;;;;;31.88;27.30;97267.84;5043207;28;20211;-53
2022/07/17 11:32:17;;;;;;;3.13;2.22;;;;;;;32.09;26.42;97255.97;5042958;28;20208;-55
2022/07/17 11:34:43;;;;;;;2.17;2.08;;;;;;;31.99;27.49;97251.22;5055499;28;20596;-54
2022/07/17 11:37:10;;;;;;;2.25;2.05;;;;;;;32.12;26.56;97249.97;5055060;28;20241;-57